Terminal Aerodrome Forecast
Issued by NWS Huntsville, AL

Home | Current Version | Previous Version | Text Only | Print | Product List | Glossary On
Versions: 1 2 3 4 5 6 7 8 9 10 11 12 13 14 15 16 17 18 19 20 21 22 23 24 25 26 27 28 29 30 31 32 33 34 35 36 37 38 39 40 41 42 43 44 45 46
000
FTUS44 KHUN 281414 AAA
TAFMSL
TAF AMD
KMSL 281414Z 2814/2912 VRB02KT 5SM BR BKN007
     FM281600 30004KT P6SM SCT008 BKN015
     FM281800 32005KT P6SM SCT040 BKN250
     FM290000 VRB03KT P6SM SCT250=

USA.gov is the U.S. government's official web portal to all federal, state and local government web resources and services.